Flight Track Log - Related Links

Times and Time Zones

All times are in EDT time to prevent confusion due to time zone crossing. See the SWA691 flight status page for this flight to view local times or setup timezone preferences in your user account.

Time Position Orientation Groundspeed Altitude Reporting Facility
EDT Latitude Longitude Course Direction KTS MPH feet Rate Location/Type
Thu 07:50:45 PM 28.0070 -82.5300 353° North 169 194 1,300  Level FlightAware ADS-B
Thu 07:51:21 PM 28.0390 -82.5330 355° North 203 234 2,300 2,032 Climbing FlightAware ADS-B
Thu 07:51:47 PM 28.0650 -82.5350 356° North 221 254 3,400 2,172 Climbing FlightAware ADS-B
Thu 07:52:19 PM 28.1000 -82.5410 351° North 250 288 4,400 2,542 Climbing FlightAware ADS-B
Thu 07:52:46 PM 28.1300 -82.5450 353° North 252 290 5,900 3,300 Climbing FlightAware ADS-B
Thu 07:53:19 PM 28.1700 -82.5510 352° North 266 306 7,700 3,246 Climbing FlightAware ADS-B
Thu 07:53:47 PM 28.2060 -82.5570 352° North 275 316 9,200 3,000 Climbing FlightAware ADS-B
Thu 07:54:05 PM 28.2290 -82.5600 353° North 283 326 10,000 2,100 Climbing FlightAware ADS-B
Thu 07:55:07 PM 28.3160 -82.5730 353° North 337 388 12,000 2,444 Climbing FlightAware ADS-B
Thu 07:55:53 PM 28.3930 -82.5810 355° North 350 403 14,400 2,706 Climbing FlightAware ADS-B
Thu 07:56:49 PM 28.4870 -82.5840 358° North 374 430 16,600 2,441 Climbing FlightAware ADS-B
Thu 07:57:51 PM 28.5970 -82.5860 359° North 388 447 19,200 2,360 Climbing FlightAware ADS-B
Thu 07:58:18 PM 28.6460 -82.5880 358° North 398 458 20,100 1,917 Climbing FlightAware ADS-B
Thu 07:59:03 PM 28.7320 -82.5970 355° North 412 474 21,500 2,074 Climbing FlightAware ADS-B
Thu 07:59:39 PM 28.7990 -82.6060 353° North 412 474 22,900 2,250 Climbing FlightAware ADS-B
Thu 08:00:23 PM 28.8820 -82.6180 353° North 415 478 24,500 1,782 Climbing FlightAware ADS-B
Thu 08:01:20 PM 28.9920 -82.6330 353° North 430 495 25,900 1,500 Climbing FlightAware ADS-B
Thu 08:01:43 PM 29.0390 -82.6400 353° North 437 503 26,500 1,393 Climbing FlightAware ADS-B
Thu 08:02:16 PM 29.1060 -82.6490 353° North 446 513 27,200 1,357 Climbing FlightAware ADS-B
Thu 08:03:07 PM 29.2130 -82.6640 353° North 456 525 28,400 1,350 Climbing FlightAware ADS-B
Thu 08:03:36 PM 29.2720 -82.6720 353° North 460 529 29,000 1,259 Climbing FlightAware ADS-B
Thu 08:04:28 PM 29.3830 -82.6880 353° North 468 539 30,100 1,515 Climbing FlightAware ADS-B
Thu 08:05:15 PM 29.4870 -82.6920 358° North 475 547 31,500 1,404 Climbing FlightAware ADS-B
Thu 08:06:02 PM 29.5900 -82.6920 360° North 483 556 32,300 913 Climbing FlightAware ADS-B
Thu 08:06:47 PM 29.6920 -82.6910 360° North 494 568 32,900 897 Climbing FlightAware ADS-B
Thu 08:07:29 PM 29.7880 -82.6910 360° North 497 572 33,600 1,333 Climbing FlightAware ADS-B
Thu 08:08:35 PM 29.9400 -82.6890 North 486 559 35,300 1,393 Climbing FlightAware ADS-B
Thu 08:09:21 PM 30.0380 -82.6890 360° North 482 555 36,200 1,034 Climbing FlightAware ADS-B
Thu 08:10:02 PM 30.1330 -82.6890 360° North 485 558 36,800 471 Climbing FlightAware ADS-B
Thu 08:11:03 PM 30.2690 -82.6880 360° North 488 562 37,000 118 Climbing FlightAware ADS-B
Thu 08:11:44 PM 30.3640 -82.6870 North 487 560 37,000  Level FlightAware ADS-B
Thu 08:12:35 PM 30.4780 -82.6840 North 494 568 37,000  Level FlightAware ADS-B
Thu 08:13:10 PM 30.5530 -82.6650 12° North 510 587 37,000  Level FlightAware ADS-B
Thu 08:14:10 PM 30.6890 -82.5990 23° Northeast 518 596 37,000  Level FlightAware ADS-B
Thu 08:14:59 PM 30.7920 -82.5480 23° Northeast 517 595 37,000  Level FlightAware ADS-B
Thu 08:15:27 PM 30.8610 -82.5140 23° Northeast 517 595 37,000  Level FlightAware ADS-B
Thu 08:16:20 PM 30.9780 -82.4560 23° Northeast 518 596 37,000  Level FlightAware ADS-B
Thu 08:17:03 PM 31.0750 -82.4090 23° Northeast 520 598 37,000  Level FlightAware ADS-B
Thu 08:17:12 PM 31.0900 -82.4020 22° Northeast 520 598 37,000  Level FlightAware ADS-B
Thu 08:18:37 PM 31.2830 -82.3080 23° Northeast 521 600 37,000  Level FlightAware ADS-B
Thu 08:19:31 PM 31.3990 -82.2510 23° Northeast 522 601 37,000  Level FlightAware ADS-B
Thu 08:19:58 PM 31.4590 -82.2220 22° Northeast 523 602 37,000  Level FlightAware ADS-B
Thu 08:20:57 PM 31.5950 -82.1550 23° Northeast 523 602 37,000  Level FlightAware ADS-B
Thu 08:21:51 PM 31.7160 -82.0950 23° Northeast 523 602 37,000  Level FlightAware ADS-B
Thu 08:22:51 PM 31.8510 -82.0280 23° Northeast 524 603 37,000  Level FlightAware ADS-B
Thu 08:23:44 PM 31.9670 -81.9660 24° Northeast 534 615 37,000  Level FlightAware ADS-B
Thu 08:24:34 PM 32.0670 -81.8780 37° Northeast 544 626 37,000  Level FlightAware ADS-B
Thu 08:25:35 PM 32.1850 -81.7600 40° Northeast 542 624 37,000  Level FlightAware ADS-B
Thu 08:26:31 PM 32.2910 -81.6540 40° Northeast 540 621 37,000  Level FlightAware ADS-B
Thu 08:27:32 PM 32.4060 -81.5390 40° Northeast 537 618 37,000  Level FlightAware ADS-B
Thu 08:28:24 PM 32.5070 -81.4380 40° Northeast 536 617 37,000  Level FlightAware ADS-B
Thu 08:29:20 PM 32.6130 -81.3310 40° Northeast 536 617 37,000  Level FlightAware ADS-B
Thu 08:30:16 PM 32.7180 -81.2240 41° Northeast 537 618 37,000  Level FlightAware ADS-B
Thu 08:31:12 PM 32.8220 -81.1190 40° Northeast 540 621 37,000  Level FlightAware ADS-B
Thu 08:32:09 PM 32.9330 -81.0060 40° Northeast 543 625 37,000  Level FlightAware ADS-B
Thu 08:32:43 PM 32.9950 -80.9430 40° Northeast 546 628 37,000  Level FlightAware ADS-B
Thu 08:33:36 PM 33.0950 -80.8290 44° Northeast 552 635 37,000  Level FlightAware ADS-B
Thu 08:34:21 PM 33.1790 -80.7330 44° Northeast 554 638 37,000  Level FlightAware ADS-B
Thu 08:35:10 PM 33.2700 -80.6280 44° Northeast 554 638 37,000  Level FlightAware ADS-B
Thu 08:35:41 PM 33.3270 -80.5640 43° Northeast 555 639 37,000  Level FlightAware ADS-B
Thu 08:36:31 PM 33.4200 -80.4570 44° Northeast 555 639 37,000  Level FlightAware ADS-B
Thu 08:37:18 PM 33.5070 -80.3570 44° Northeast 554 638 37,000  Level FlightAware ADS-B
Thu 08:38:06 PM 33.5950 -80.2540 44° Northeast 553 636 37,000  Level FlightAware ADS-B
Thu 08:38:50 PM 33.6750 -80.1620 44° Northeast 553 636 37,000  Level FlightAware ADS-B
Thu 08:39:11 PM 33.7120 -80.1180 45° Northeast 553 636 37,000  Level FlightAware ADS-B
Thu 08:40:05 PM 33.8140 -80.0000 44° Northeast 553 636 37,000  Level FlightAware ADS-B
Thu 08:40:45 PM 33.8850 -79.9170 44° Northeast 551 634 37,000  Level FlightAware ADS-B
Thu 08:41:13 PM 33.9380 -79.8550 44° Northeast 550 633 37,000  Level FlightAware ADS-B
Thu 08:41:40 PM 33.9870 -79.7980 44° Northeast 549 632 37,000  Level FlightAware ADS-B
Thu 08:42:28 PM 34.0730 -79.6960 44° Northeast 548 631 37,000  Level FlightAware ADS-B
Thu 08:43:12 PM 34.1540 -79.6010 44° Northeast 549 632 37,000  Level FlightAware ADS-B
Thu 08:44:03 PM 34.2400 -79.5000 44° Northeast 550 633 37,000  Level FlightAware ADS-B
Thu 08:44:53 PM 34.3300 -79.3930 44° Northeast 553 636 37,000  Level FlightAware ADS-B
Thu 08:45:48 PM 34.4370 -79.2660 44° Northeast 555 639 37,000  Level FlightAware ADS-B
Thu 08:46:08 PM 34.4700 -79.2260 45° Northeast 556 640 37,000  Level FlightAware ADS-B
Thu 08:46:48 PM 34.5470 -79.1330 45° Northeast 559 643 37,000  Level FlightAware ADS-B
Thu 08:47:43 PM 34.6490 -79.0110 45° Northeast 560 644 37,000  Level FlightAware ADS-B
Thu 08:48:37 PM 34.7470 -78.8940 44° Northeast 561 646 37,000  Level FlightAware ADS-B
Thu 08:49:05 PM 34.8000 -78.8290 45° Northeast 560 644 37,000  Level FlightAware ADS-B
Thu 08:49:45 PM 34.8710 -78.7440 44° Northeast 562 647 37,000  Level FlightAware ADS-B
Thu 08:50:07 PM 34.9140 -78.6910 45° Northeast 562 647 37,000  Level FlightAware ADS-B
Thu 08:50:46 PM 34.9830 -78.6080 45° Northeast 555 639 37,000  Level FlightAware ADS-B
Thu 08:51:11 PM 35.0290 -78.5520 45° Northeast 556 640 37,000  Level FlightAware ADS-B
Thu 08:51:46 PM 35.0900 -78.4770 45° Northeast 555 639 37,000  Level FlightAware ADS-B
Thu 08:52:21 PM 35.1530 -78.4000 45° Northeast 555 639 37,000  Level FlightAware ADS-B
Thu 08:53:28 PM 35.2800 -78.2440 45° Northeast 555 639 37,000  Level FlightAware ADS-B
Thu 08:54:18 PM 35.3720 -78.1310 45° Northeast 555 639 37,000  Level FlightAware ADS-B
Thu 08:54:48 PM 35.4250 -78.0660 45° Northeast 555 639 37,000  Level FlightAware ADS-B
Thu 08:55:43 PM 35.5250 -77.9410 45° Northeast 555 639 37,000  Level FlightAware ADS-B
Thu 08:56:23 PM 35.6000 -77.8490 45° Northeast 560 644 37,000  Level FlightAware ADS-B
Thu 08:56:55 PM 35.6600 -77.7740 45° Northeast 560 644 37,000  Level FlightAware ADS-B
Thu 08:57:53 PM 35.7650 -77.6420 46° Northeast 560 644 37,000  Level FlightAware ADS-B
Thu 08:58:31 PM 35.8320 -77.5590 45° Northeast 555 639 37,000  Level FlightAware ADS-B
Thu 08:59:21 PM 35.9230 -77.4450 45° Northeast 555 639 37,000  Level FlightAware ADS-B
Thu 09:00:15 PM 36.0220 -77.3190 46° Northeast 561 646 37,000  Level FlightAware ADS-B
Thu 09:00:56 PM 36.0910 -77.2320 46° Northeast 556 640 37,000  Level FlightAware ADS-B
Thu 09:01:36 PM 36.1680 -77.1340 46° Northeast 556 640 37,000  Level FlightAware ADS-B
Thu 09:02:26 PM 36.2550 -77.0240 46° Northeast 556 640 37,000  Level FlightAware ADS-B
Thu 09:03:04 PM 36.3270 -76.9320 46° Northeast 560 644 37,000  Level FlightAware ADS-B
Thu 09:03:14 PM 36.3440 -76.9090 47° Northeast 560 644 37,000  Level FlightAware ADS-B
Thu 09:03:54 PM 36.4160 -76.8170 46° Northeast 560 644 37,000  Level FlightAware ADS-B
Thu 09:04:39 PM 36.4990 -76.7100 46° Northeast 560 644 37,000  Level FlightAware ADS-B
Thu 09:05:13 PM 36.5610 -76.6310 46° Northeast 562 647 37,000  Level FlightAware ADS-B
Thu 09:06:03 PM 36.6480 -76.5180 46° Northeast 562 647 37,000  Level FlightAware ADS-B
Thu 09:06:40 PM 36.7080 -76.4490 43° Northeast 562 647 37,000  Level FlightAware ADS-B
Thu 09:07:04 PM 36.7780 -76.4020 28° Northeast 541 623 37,000  Level FlightAware ADS-B
Thu 09:07:36 PM 36.8470 -76.3520 30° Northeast 543 625 37,000  Level FlightAware ADS-B
Thu 09:08:12 PM 36.9230 -76.2960 30° Northeast 544 626 37,000  Level FlightAware ADS-B
Thu 09:08:43 PM 36.9880 -76.2490 30° Northeast 545 627 37,000  Level FlightAware ADS-B
Thu 09:09:19 PM 37.0720 -76.1880 30° Northeast 546 628 37,000  Level FlightAware ADS-B
Thu 09:10:19 PM 37.1950 -76.0880 33° Northeast 553 636 37,000  Level FlightAware ADS-B
Thu 09:11:04 PM 37.2900 -75.9980 37° Northeast 561 646 37,000  Level FlightAware ADS-B
Thu 09:12:08 PM 37.4180 -75.8750 37° Northeast 563 648 37,000  Level FlightAware ADS-B
Thu 09:12:39 PM 37.4830 -75.8130 37° Northeast 563 648 37,000  Level FlightAware ADS-B
Thu 09:13:37 PM 37.6050 -75.6960 37° Northeast 562 647 37,000  Level FlightAware ADS-B
Thu 09:14:02 PM 37.6580 -75.6460 37° Northeast 562 647 37,000  Level FlightAware ADS-B
Thu 09:14:35 PM 37.7260 -75.5800 38° Northeast 555 639 37,000  Level FlightAware ADS-B
Thu 09:15:04 PM 37.7850 -75.5230 37° Northeast 554 638 37,000  Level FlightAware ADS-B
Thu 09:15:59 PM 37.8990 -75.4130 37° Northeast 551 634 37,000  Level FlightAware ADS-B
Thu 09:16:53 PM 38.0100 -75.3050 37° Northeast 549 632 37,000  Level FlightAware ADS-B
Thu 09:17:45 PM 38.1150 -75.2020 38° Northeast 549 632 37,000  Level FlightAware ADS-B
Thu 09:18:15 PM 38.1780 -75.1410 37° Northeast 549 632 37,000  Level FlightAware ADS-B
Thu 09:19:05 PM 38.2790 -75.0420 38° Northeast 551 634 37,000  Level FlightAware ADS-B
Thu 09:20:13 PM 38.4180 -74.9050 38° Northeast 555 639 37,000  Level FlightAware ADS-B
Thu 09:21:03 PM 38.5190 -74.8050 38° Northeast 557 641 37,000  Level FlightAware ADS-B
Thu 09:22:01 PM 38.6290 -74.6960 38° Northeast 556 640 37,000  Level FlightAware ADS-B
Thu 09:22:50 PM 38.7410 -74.5850 38° Northeast 555 639 37,000  Level FlightAware ADS-B
Thu 09:23:52 PM 38.8660 -74.4590 38° Northeast 554 638 37,000  Level FlightAware ADS-B
Thu 09:24:37 PM 38.9560 -74.3680 38° Northeast 553 636 37,000  Level FlightAware ADS-B
Thu 09:25:32 PM 39.0710 -74.2530 38° Northeast 557 641 37,000  Level FlightAware ADS-B
Thu 09:26:26 PM 39.1790 -74.1430 38° Northeast 558 642 37,000  Level FlightAware ADS-B
Thu 09:27:26 PM 39.2990 -74.0210 38° Northeast 558 642 37,000  Level FlightAware ADS-B
Thu 09:27:56 PM 39.3620 -73.9570 38° Northeast 556 640 37,000  Level FlightAware ADS-B
Thu 09:28:49 PM 39.4700 -73.8460 38° Northeast 556 640 37,000  Level FlightAware ADS-B
Thu 09:29:45 PM 39.5820 -73.7310 38° Northeast 558 642 37,000 -265 Level FlightAware ADS-B
Thu 09:30:42 PM 39.6980 -73.6110 39° Northeast 563 648 36,500 -757 Descending FlightAware ADS-B
Thu 09:31:36 PM 39.8090 -73.4960 39° Northeast 571 657 35,600 -964 Descending FlightAware ADS-B
Thu 09:32:34 PM 39.9290 -73.3710 39° Northeast 570 656 34,700 -1,278 Descending FlightAware ADS-B
Thu 09:33:24 PM 40.0300 -73.2640 39° Northeast 559 643 33,300 -1,922 Descending FlightAware ADS-B
Thu 09:34:17 PM 40.1340 -73.1550 39° Northeast 554 638 31,400 -2,176 Descending FlightAware ADS-B
Thu 09:35:06 PM 40.2310 -73.0540 38° Northeast 549 632 29,600 -2,163 Descending FlightAware ADS-B
Thu 09:35:43 PM 40.3010 -72.9790 39° Northeast 545 627 28,300 -2,250 Descending FlightAware ADS-B
Thu 09:36:10 PM 40.3570 -72.9200 39° Northeast 538 619 27,200 -2,233 Descending FlightAware ADS-B
Thu 09:37:09 PM 40.4710 -72.7990 39° Northeast 520 598 25,100 -2,106 Descending FlightAware ADS-B
Thu 09:37:44 PM 40.5340 -72.7320 39° Northeast 509 586 23,900 -2,057 Descending FlightAware ADS-B
Thu 09:38:19 PM 40.5950 -72.6670 39° Northeast 495 570 22,700 -1,605 Descending FlightAware ADS-B
Thu 09:39:10 PM 40.6800 -72.5650 42° Northeast 461 531 21,600 -1,787 Descending FlightAware ADS-B
Thu 09:39:53 PM 40.7360 -72.4710 52° Northeast 445 512 19,900 -2,257 Descending FlightAware ADS-B
Thu 09:40:51 PM 40.8040 -72.3520 53° Northeast 405 466 17,800 -2,196 Descending FlightAware ADS-B
Thu 09:41:45 PM 40.8630 -72.2490 53° Northeast 379 436 15,800 -2,176 Descending FlightAware ADS-B
Thu 09:42:22 PM 40.9020 -72.1820 52° Northeast 362 417 14,500 -2,000 Descending FlightAware ADS-B
Thu 09:42:57 PM 40.9370 -72.1200 53° Northeast 352 405 13,400 -1,500 Descending FlightAware ADS-B
Thu 09:43:26 PM 40.9650 -72.0710 53° Northeast 336 387 12,900 -1,011 Descending FlightAware ADS-B
Thu 09:44:26 PM 41.0200 -71.9760 52° Northeast 325 374 11,900 -1,043 Descending FlightAware ADS-B
Thu 09:45:21 PM 41.0750 -71.9010 46° Northeast 308 354 10,900 -1,020 Descending FlightAware ADS-B
Thu 09:46:06 PM 41.1280 -71.8550 33° Northeast 290 334 10,200 -581 Descending FlightAware ADS-B
Thu 09:46:54 PM 41.1830 -71.8080 33° Northeast 298 343 10,000 -148 Descending FlightAware ADS-B
Thu 09:47:27 PM 41.2190 -71.7760 34° Northeast 296 341 10,000  Level FlightAware ADS-B
Thu 09:47:59 PM 41.2580 -71.7440 32° Northeast 295 339 10,000 -194 Level FlightAware ADS-B
Thu 09:49:00 PM 41.3270 -71.6840 33° Northeast 280 322 9,700 -660 Descending FlightAware ADS-B
Thu 09:49:39 PM 41.3680 -71.6480 33° Northeast 276 318 8,900 -1,200 Descending FlightAware ADS-B
Thu 09:50:00 PM 41.3910 -71.6280 33° Northeast 274 315 8,500 -1,227 Descending FlightAware ADS-B
Thu 09:50:23 PM 41.4140 -71.6070 34° Northeast 273 314 8,000 -1,424 Descending FlightAware ADS-B
Thu 09:50:59 PM 41.4520 -71.5730 34° Northeast 271 312 7,100 -1,412 Descending FlightAware ADS-B
Thu 09:51:14 PM 41.4680 -71.5590 33° Northeast 270 311 6,800 -1,395 Descending FlightAware ADS-B
Thu 09:51:42 PM 41.4980 -71.5320 34° Northeast 269 310 6,100 -1,393 Descending FlightAware ADS-B
Thu 09:52:10 PM 41.5260 -71.5070 34° Northeast 268 308 5,500 -1,320 Descending FlightAware ADS-B
Thu 09:52:32 PM 41.5490 -71.4860 34° Northeast 264 304 5,000 -600 Descending FlightAware ADS-B
Thu 09:53:00 PM 41.5750 -71.4620 35° Northeast 239 275 5,000  Level FlightAware ADS-B
Thu 09:53:22 PM 41.5950 -71.4430 35° Northeast 230 265 5,000 -214 Level FlightAware ADS-B
Thu 09:53:56 PM 41.6240 -71.4150 36° Northeast 223 257 4,800 -649 Descending FlightAware ADS-B
Thu 09:54:36 PM 41.6550 -71.3870 34° Northeast 208 239 4,200 -1,031 Descending FlightAware ADS-B
Thu 09:55:00 PM 41.6740 -71.3680 37° Northeast 204 235 3,700 -1,132 Descending FlightAware ADS-B
Thu 09:55:29 PM 41.6970 -71.3460 36° Northeast 199 229 3,200 -1,100 Descending FlightAware ADS-B
Thu 09:56:00 PM 41.7180 -71.3260 35° Northeast 191 220 2,600 -1,043 Descending FlightAware ADS-B
Thu 09:56:15 PM 41.7280 -71.3200 24° Northeast 174 200 2,400 -1,000 Descending FlightAware ADS-B
Thu 09:57:00 PM 41.7520 -71.3420 326° Northwest 138 159 1,600 -909 Descending FlightAware ADS-B
Thu 09:57:21 PM 41.7590 -71.3550 306° West 127 146 1,400 -514 Descending FlightAware ADS-B
Thu 09:57:35 PM 41.7630 -71.3630 304° West 126 145 1,300 -628 Descending FlightAware ADS-B
Thu 09:58:47 PM 41.7447 -71.4081 304° West 117 135 500 -667 Descending Boston Center
Thu 10:00:00 PM 41.7167 -71.4167 255° West  Level FlightAware Approximate

Login

Don't have an account? Register now (free) for customized features, flight alerts, and more!